sensor_id;sensor_type;location;lat;lon;timestamp;temperature;humidity
80743;SHT31;70142;50.894;6.052;2023-12-28T00:02:04;9.84;78.21
80743;SHT31;70142;50.894;6.052;2023-12-28T00:04:37;9.91;78.03
80743;SHT31;70142;50.894;6.052;2023-12-28T00:07:10;9.95;77.61
80743;SHT31;70142;50.894;6.052;2023-12-28T00:09:44;10.03;77.16
80743;SHT31;70142;50.894;6.052;2023-12-28T00:12:17;10.03;76.34
80743;SHT31;70142;50.894;6.052;2023-12-28T00:14:51;10.08;76.17
80743;SHT31;70142;50.894;6.052;2023-12-28T00:17:25;10.06;75.63
80743;SHT31;70142;50.894;6.052;2023-12-28T00:19:58;10.10;75.65
80743;SHT31;70142;50.894;6.052;2023-12-28T00:22:32;10.19;75.27
80743;SHT31;70142;50.894;6.052;2023-12-28T00:25:06;10.22;74.89
80743;SHT31;70142;50.894;6.052;2023-12-28T00:27:39;10.28;74.96
80743;SHT31;70142;50.894;6.052;2023-12-28T00:30:13;10.32;74.79
80743;SHT31;70142;50.894;6.052;2023-12-28T00:32:49;10.33;74.53
80743;SHT31;70142;50.894;6.052;2023-12-28T00:35:22;10.33;74.56
80743;SHT31;70142;50.894;6.052;2023-12-28T00:37:55;10.39;74.46
80743;SHT31;70142;50.894;6.052;2023-12-28T00:40:29;10.45;74.26
80743;SHT31;70142;50.894;6.052;2023-12-28T00:43:03;10.45;74.24
80743;SHT31;70142;50.894;6.052;2023-12-28T00:45:36;10.47;74.48
80743;SHT31;70142;50.894;6.052;2023-12-28T00:48:11;10.47;74.31
80743;SHT31;70142;50.894;6.052;2023-12-28T00:50:45;10.56;74.23
80743;SHT31;70142;50.894;6.052;2023-12-28T00:53:18;10.56;74.14
80743;SHT31;70142;50.894;6.052;2023-12-28T00:55:51;10.50;74.54
80743;SHT31;70142;50.894;6.052;2023-12-28T00:58:25;10.53;74.66
80743;SHT31;70142;50.894;6.052;2023-12-28T01:00:58;10.60;74.74
80743;SHT31;70142;50.894;6.052;2023-12-28T01:03:35;10.64;74.76
80743;SHT31;70142;50.894;6.052;2023-12-28T01:06:11;10.64;74.69
80743;SHT31;70142;50.894;6.052;2023-12-28T01:08:44;10.66;75.00
80743;SHT31;70142;50.894;6.052;2023-12-28T01:11:17;10.67;75.17
80743;SHT31;70142;50.894;6.052;2023-12-28T01:13:51;10.69;75.41
80743;SHT31;70142;50.894;6.052;2023-12-28T01:16:24;10.77;75.15
80743;SHT31;70142;50.894;6.052;2023-12-28T01:18:59;10.77;75.23
80743;SHT31;70142;50.894;6.052;2023-12-28T01:21:33;10.76;75.52
80743;SHT31;70142;50.894;6.052;2023-12-28T01:24:06;10.70;75.70
80743;SHT31;70142;50.894;6.052;2023-12-28T01:26:39;10.73;75.96
80743;SHT31;70142;50.894;6.052;2023-12-28T01:29:12;10.73;75.92
80743;SHT31;70142;50.894;6.052;2023-12-28T01:31:46;10.76;76.17
80743;SHT31;70142;50.894;6.052;2023-12-28T01:34:20;10.71;76.28
80743;SHT31;70142;50.894;6.052;2023-12-28T01:36:54;10.64;76.64
80743;SHT31;70142;50.894;6.052;2023-12-28T01:39:27;10.53;77.10
80743;SHT31;70142;50.894;6.052;2023-12-28T01:42:01;10.50;77.30
80743;SHT31;70142;50.894;6.052;2023-12-28T01:44:34;10.49;77.39
80743;SHT31;70142;50.894;6.052;2023-12-28T01:47:07;10.46;77.60
80743;SHT31;70142;50.894;6.052;2023-12-28T01:49:43;10.45;77.72
80743;SHT31;70142;50.894;6.052;2023-12-28T01:52:17;10.42;78.07
80743;SHT31;70142;50.894;6.052;2023-12-28T01:54:51;10.43;78.02
80743;SHT31;70142;50.894;6.052;2023-12-28T01:57:24;10.42;78.05
80743;SHT31;70142;50.894;6.052;2023-12-28T01:59:58;10.46;77.92
80743;SHT31;70142;50.894;6.052;2023-12-28T02:02:44;10.46;77.96
80743;SHT31;70142;50.894;6.052;2023-12-28T02:05:19;10.45;77.96
80743;SHT31;70142;50.894;6.052;2023-12-28T02:07:53;10.47;77.95
80743;SHT31;70142;50.894;6.052;2023-12-28T02:10:28;10.45;78.11
80743;SHT31;70142;50.894;6.052;2023-12-28T02:13:04;10.50;78.04
80743;SHT31;70142;50.894;6.052;2023-12-28T02:15:38;10.40;78.15
80743;SHT31;70142;50.894;6.052;2023-12-28T02:18:12;10.42;78.22
80743;SHT31;70142;50.894;6.052;2023-12-28T02:20:51;10.46;78.04
80743;SHT31;70142;50.894;6.052;2023-12-28T02:23:24;10.40;78.17
80743;SHT31;70142;50.894;6.052;2023-12-28T02:25:58;10.39;78.14
80743;SHT31;70142;50.894;6.052;2023-12-28T02:28:32;10.39;78.24
80743;SHT31;70142;50.894;6.052;2023-12-28T02:31:07;10.43;78.14
80743;SHT31;70142;50.894;6.052;2023-12-28T02:33:49;10.40;78.23
80743;SHT31;70142;50.894;6.052;2023-12-28T02:36:26;10.40;78.26
80743;SHT31;70142;50.894;6.052;2023-12-28T02:39:01;10.36;78.33
80743;SHT31;70142;50.894;6.052;2023-12-28T02:41:38;10.43;78.11
80743;SHT31;70142;50.894;6.052;2023-12-28T02:44:12;10.43;78.08
80743;SHT31;70142;50.894;6.052;2023-12-28T02:46:46;10.45;78.03
80743;SHT31;70142;50.894;6.052;2023-12-28T02:49:19;10.49;77.94
80743;SHT31;70142;50.894;6.052;2023-12-28T02:51:54;10.47;78.04
80743;SHT31;70142;50.894;6.052;2023-12-28T02:54:27;10.46;78.10
80743;SHT31;70142;50.894;6.052;2023-12-28T02:57:02;10.46;78.07
80743;SHT31;70142;50.894;6.052;2023-12-28T02:59:35;10.47;77.96
80743;SHT31;70142;50.894;6.052;2023-12-28T03:02:08;10.50;77.99
80743;SHT31;70142;50.894;6.052;2023-12-28T03:04:41;10.46;78.03
80743;SHT31;70142;50.894;6.052;2023-12-28T03:07:15;10.50;77.92
80743;SHT31;70142;50.894;6.052;2023-12-28T03:09:48;10.46;77.83
80743;SHT31;70142;50.894;6.052;2023-12-28T03:12:23;10.47;77.91
80743;SHT31;70142;50.894;6.052;2023-12-28T03:14:56;10.47;78.02
80743;SHT31;70142;50.894;6.052;2023-12-28T03:17:29;10.46;77.94
80743;SHT31;70142;50.894;6.052;2023-12-28T03:20:05;10.49;77.82
80743;SHT31;70142;50.894;6.052;2023-12-28T03:22:39;10.46;77.88
80743;SHT31;70142;50.894;6.052;2023-12-28T03:25:15;10.49;77.96
80743;SHT31;70142;50.894;6.052;2023-12-28T03:27:50;10.46;77.92
80743;SHT31;70142;50.894;6.052;2023-12-28T03:30:23;10.55;77.76
80743;SHT31;70142;50.894;6.052;2023-12-28T03:32:57;10.49;77.88
80743;SHT31;70142;50.894;6.052;2023-12-28T03:35:30;10.49;77.86
80743;SHT31;70142;50.894;6.052;2023-12-28T03:38:03;10.46;78.07
80743;SHT31;70142;50.894;6.052;2023-12-28T03:40:37;10.43;78.04
80743;SHT31;70142;50.894;6.052;2023-12-28T03:43:11;10.46;77.99
80743;SHT31;70142;50.894;6.052;2023-12-28T03:45:45;10.47;78.01
80743;SHT31;70142;50.894;6.052;2023-12-28T03:48:19;10.47;77.86
80743;SHT31;70142;50.894;6.052;2023-12-28T03:50:52;10.45;78.00
80743;SHT31;70142;50.894;6.052;2023-12-28T03:53:25;10.36;78.23
80743;SHT31;70142;50.894;6.052;2023-12-28T03:55:59;10.39;78.10
80743;SHT31;70142;50.894;6.052;2023-12-28T03:58:34;10.37;78.07
80743;SHT31;70142;50.894;6.052;2023-12-28T04:01:07;10.39;77.99
80743;SHT31;70142;50.894;6.052;2023-12-28T04:03:40;10.42;77.93
80743;SHT31;70142;50.894;6.052;2023-12-28T04:06:14;10.42;77.94
80743;SHT31;70142;50.894;6.052;2023-12-28T04:08:48;10.43;77.87
80743;SHT31;70142;50.894;6.052;2023-12-28T04:11:21;10.43;77.84
80743;SHT31;70142;50.894;6.052;2023-12-28T04:13:56;10.47;77.59
80743;SHT31;70142;50.894;6.052;2023-12-28T04:16:29;10.46;77.54
80743;SHT31;70142;50.894;6.052;2023-12-28T04:19:02;10.46;77.57
80743;SHT31;70142;50.894;6.052;2023-12-28T04:21:37;10.49;77.36
80743;SHT31;70142;50.894;6.052;2023-12-28T04:24:10;10.50;77.13
80743;SHT31;70142;50.894;6.052;2023-12-28T04:26:43;10.47;77.20
80743;SHT31;70142;50.894;6.052;2023-12-28T04:29:18;10.52;77.16
80743;SHT31;70142;50.894;6.052;2023-12-28T04:31:53;10.47;77.18
80743;SHT31;70142;50.894;6.052;2023-12-28T04:34:26;10.46;77.25
80743;SHT31;70142;50.894;6.052;2023-12-28T04:36:59;10.47;77.27
80743;SHT31;70142;50.894;6.052;2023-12-28T04:39:32;10.47;77.25
80743;SHT31;70142;50.894;6.052;2023-12-28T04:42:06;10.46;77.27
80743;SHT31;70142;50.894;6.052;2023-12-28T04:44:40;10.46;77.17
80743;SHT31;70142;50.894;6.052;2023-12-28T04:47:14;10.46;77.24
80743;SHT31;70142;50.894;6.052;2023-12-28T04:49:47;10.42;77.07
80743;SHT31;70142;50.894;6.052;2023-12-28T04:52:20;10.47;76.97
80743;SHT31;70142;50.894;6.052;2023-12-28T04:54:57;10.53;76.77
80743;SHT31;70142;50.894;6.052;2023-12-28T04:57:30;10.53;76.73
80743;SHT31;70142;50.894;6.052;2023-12-28T05:00:06;10.53;76.71
80743;SHT31;70142;50.894;6.052;2023-12-28T05:02:40;10.56;76.55
80743;SHT31;70142;50.894;6.052;2023-12-28T05:05:13;10.53;76.60
80743;SHT31;70142;50.894;6.052;2023-12-28T05:07:46;10.57;76.30
80743;SHT31;70142;50.894;6.052;2023-12-28T05:10:20;10.59;76.35
80743;SHT31;70142;50.894;6.052;2023-12-28T05:12:53;10.56;76.32
80743;SHT31;70142;50.894;6.052;2023-12-28T05:15:34;10.56;76.27
80743;SHT31;70142;50.894;6.052;2023-12-28T05:18:07;10.60;76.11
80743;SHT31;70142;50.894;6.052;2023-12-28T05:20:41;10.64;76.03
80743;SHT31;70142;50.894;6.052;2023-12-28T05:23:14;10.71;75.84
80743;SHT31;70142;50.894;6.052;2023-12-28T05:25:47;10.77;75.41
80743;SHT31;70142;50.894;6.052;2023-12-28T05:28:20;10.87;75.33
80743;SHT31;70142;50.894;6.052;2023-12-28T05:30:55;10.83;75.35
80743;SHT31;70142;50.894;6.052;2023-12-28T05:33:30;10.83;75.35
80743;SHT31;70142;50.894;6.052;2023-12-28T05:36:05;10.83;75.26
80743;SHT31;70142;50.894;6.052;2023-12-28T05:38:41;10.89;75.31
80743;SHT31;70142;50.894;6.052;2023-12-28T05:41:14;10.93;75.22
80743;SHT31;70142;50.894;6.052;2023-12-28T05:43:48;10.89;75.35
80743;SHT31;70142;50.894;6.052;2023-12-28T05:46:22;10.96;75.29
80743;SHT31;70142;50.894;6.052;2023-12-28T05:48:56;10.89;75.17
80743;SHT31;70142;50.894;6.052;2023-12-28T05:51:29;10.94;74.96
80743;SHT31;70142;50.894;6.052;2023-12-28T05:54:03;10.85;75.18
80743;SHT31;70142;50.894;6.052;2023-12-28T05:56:40;10.81;75.22
80743;SHT31;70142;50.894;6.052;2023-12-28T05:59:13;10.83;75.25
80743;SHT31;70142;50.894;6.052;2023-12-28T06:01:51;10.79;75.26
80743;SHT31;70142;50.894;6.052;2023-12-28T06:04:24;10.76;75.20
80743;SHT31;70142;50.894;6.052;2023-12-28T06:06:57;10.69;75.28
80743;SHT31;70142;50.894;6.052;2023-12-28T06:09:30;10.70;75.03
80743;SHT31;70142;50.894;6.052;2023-12-28T06:12:04;10.73;74.95
80743;SHT31;70142;50.894;6.052;2023-12-28T06:14:38;10.73;74.90
80743;SHT31;70142;50.894;6.052;2023-12-28T06:17:12;10.73;74.90
80743;SHT31;70142;50.894;6.052;2023-12-28T06:19:47;10.63;75.02
80743;SHT31;70142;50.894;6.052;2023-12-28T06:22:22;10.60;75.19
80743;SHT31;70142;50.894;6.052;2023-12-28T06:24:59;10.55;75.32
80743;SHT31;70142;50.894;6.052;2023-12-28T06:27:32;10.50;75.38
80743;SHT31;70142;50.894;6.052;2023-12-28T06:30:07;10.57;75.22
80743;SHT31;70142;50.894;6.052;2023-12-28T06:32:41;10.55;75.30
80743;SHT31;70142;50.894;6.052;2023-12-28T06:35:15;10.57;75.30
80743;SHT31;70142;50.894;6.052;2023-12-28T06:37:48;10.56;75.25
80743;SHT31;70142;50.894;6.052;2023-12-28T06:40:21;10.53;75.33
80743;SHT31;70142;50.894;6.052;2023-12-28T06:42:54;10.52;75.25
80743;SHT31;70142;50.894;6.052;2023-12-28T06:45:27;10.55;75.17
80743;SHT31;70142;50.894;6.052;2023-12-28T06:48:03;10.53;75.41
80743;SHT31;70142;50.894;6.052;2023-12-28T06:50:36;10.50;75.33
80743;SHT31;70142;50.894;6.052;2023-12-28T06:53:09;10.49;75.37
80743;SHT31;70142;50.894;6.052;2023-12-28T06:55:43;10.50;75.43
80743;SHT31;70142;50.894;6.052;2023-12-28T06:58:16;10.49;75.34
80743;SHT31;70142;50.894;6.052;2023-12-28T07:00:49;10.49;75.51
80743;SHT31;70142;50.894;6.052;2023-12-28T07:03:24;10.39;75.71
80743;SHT31;70142;50.894;6.052;2023-12-28T07:05:57;10.43;75.70
80743;SHT31;70142;50.894;6.052;2023-12-28T07:08:31;10.46;75.63
80743;SHT31;70142;50.894;6.052;2023-12-28T07:11:09;10.56;75.46
80743;SHT31;70142;50.894;6.052;2023-12-28T07:13:42;10.59;75.34
80743;SHT31;70142;50.894;6.052;2023-12-28T07:16:19;10.55;75.40
80743;SHT31;70142;50.894;6.052;2023-12-28T07:18:53;10.63;75.26
80743;SHT31;70142;50.894;6.052;2023-12-28T07:21:27;10.63;75.01
80743;SHT31;70142;50.894;6.052;2023-12-28T07:24:00;10.73;74.69
80743;SHT31;70142;50.894;6.052;2023-12-28T07:26:33;10.79;74.69
80743;SHT31;70142;50.894;6.052;2023-12-28T07:29:06;10.76;74.40
80743;SHT31;70142;50.894;6.052;2023-12-28T07:31:39;10.89;74.20
80743;SHT31;70142;50.894;6.052;2023-12-28T07:34:14;10.90;74.07
80743;SHT31;70142;50.894;6.052;2023-12-28T07:36:48;10.85;74.10
80743;SHT31;70142;50.894;6.052;2023-12-28T07:39:21;10.85;74.08
80743;SHT31;70142;50.894;6.052;2023-12-28T07:41:54;10.84;74.01
80743;SHT31;70142;50.894;6.052;2023-12-28T07:44:27;10.93;73.94
80743;SHT31;70142;50.894;6.052;2023-12-28T07:47:01;10.90;73.79
80743;SHT31;70142;50.894;6.052;2023-12-28T07:49:35;10.91;73.73
80743;SHT31;70142;50.894;6.052;2023-12-28T07:52:09;10.93;73.71
80743;SHT31;70142;50.894;6.052;2023-12-28T07:54:42;10.93;73.51
80743;SHT31;70142;50.894;6.052;2023-12-28T07:57:15;10.94;73.27
80743;SHT31;70142;50.894;6.052;2023-12-28T07:59:49;10.91;73.34
80743;SHT31;70142;50.894;6.052;2023-12-28T08:02:22;10.94;73.44
80743;SHT31;70142;50.894;6.052;2023-12-28T08:04:56;10.94;73.48
80743;SHT31;70142;50.894;6.052;2023-12-28T08:07:30;10.99;73.22
80743;SHT31;70142;50.894;6.052;2023-12-28T08:10:03;11.07;73.09
80743;SHT31;70142;50.894;6.052;2023-12-28T08:12:37;11.08;72.95
80743;SHT31;70142;50.894;6.052;2023-12-28T08:15:11;11.11;73.06
80743;SHT31;70142;50.894;6.052;2023-12-28T08:17:44;11.14;72.92
80743;SHT31;70142;50.894;6.052;2023-12-28T08:20:18;11.08;72.84
80743;SHT31;70142;50.894;6.052;2023-12-28T08:22:52;11.11;72.75
80743;SHT31;70142;50.894;6.052;2023-12-28T08:25:45;11.18;72.59
80743;SHT31;70142;50.894;6.052;2023-12-28T08:28:18;11.20;72.46
80743;SHT31;70142;50.894;6.052;2023-12-28T08:30:51;11.15;72.74
80743;SHT31;70142;50.894;6.052;2023-12-28T08:33:24;11.11;72.68
80743;SHT31;70142;50.894;6.052;2023-12-28T08:36:00;11.12;72.69
80743;SHT31;70142;50.894;6.052;2023-12-28T08:38:33;11.22;72.43
80743;SHT31;70142;50.894;6.052;2023-12-28T08:41:06;11.17;72.06
80743;SHT31;70142;50.894;6.052;2023-12-28T08:43:41;11.25;72.04
80743;SHT31;70142;50.894;6.052;2023-12-28T08:46:14;11.28;72.03
80743;SHT31;70142;50.894;6.052;2023-12-28T08:48:48;11.30;71.81
80743;SHT31;70142;50.894;6.052;2023-12-28T08:51:23;11.17;72.00
80743;SHT31;70142;50.894;6.052;2023-12-28T08:53:56;11.12;72.32
80743;SHT31;70142;50.894;6.052;2023-12-28T08:56:29;11.22;72.09
80743;SHT31;70142;50.894;6.052;2023-12-28T08:59:02;11.14;72.29
80743;SHT31;70142;50.894;6.052;2023-12-28T09:01:36;11.17;72.41
80743;SHT31;70142;50.894;6.052;2023-12-28T09:04:09;11.18;72.18
80743;SHT31;70142;50.894;6.052;2023-12-28T09:06:46;11.25;72.19
80743;SHT31;70142;50.894;6.052;2023-12-28T09:09:19;11.25;72.14
80743;SHT31;70142;50.894;6.052;2023-12-28T09:11:52;11.27;72.24
80743;SHT31;70142;50.894;6.052;2023-12-28T09:14:26;11.27;72.14
80743;SHT31;70142;50.894;6.052;2023-12-28T09:16:59;11.35;71.75
80743;SHT31;70142;50.894;6.052;2023-12-28T09:19:32;11.36;71.59
80743;SHT31;70142;50.894;6.052;2023-12-28T09:22:07;11.41;71.59
80743;SHT31;70142;50.894;6.052;2023-12-28T09:24:40;11.50;71.31
80743;SHT31;70142;50.894;6.052;2023-12-28T09:27:13;11.51;71.23
80743;SHT31;70142;50.894;6.052;2023-12-28T09:29:47;11.72;70.81
80743;SHT31;70142;50.894;6.052;2023-12-28T09:32:22;11.68;70.83
80743;SHT31;70142;50.894;6.052;2023-12-28T09:34:56;11.75;70.86
80743;SHT31;70142;50.894;6.052;2023-12-28T09:37:31;11.79;70.66
80743;SHT31;70142;50.894;6.052;2023-12-28T09:40:05;11.76;70.73
80743;SHT31;70142;50.894;6.052;2023-12-28T09:42:46;11.85;70.45
80743;SHT31;70142;50.894;6.052;2023-12-28T09:45:22;11.90;70.52
80743;SHT31;70142;50.894;6.052;2023-12-28T09:47:55;11.79;70.45
80743;SHT31;70142;50.894;6.052;2023-12-28T09:50:29;11.96;70.30
80743;SHT31;70142;50.894;6.052;2023-12-28T09:53:03;12.00;70.25
80743;SHT31;70142;50.894;6.052;2023-12-28T09:55:37;11.83;70.21
80743;SHT31;70142;50.894;6.052;2023-12-28T09:58:13;11.76;70.10
80743;SHT31;70142;50.894;6.052;2023-12-28T10:00:50;11.83;70.37
80743;SHT31;70142;50.894;6.052;2023-12-28T10:03:23;11.82;70.40
80743;SHT31;70142;50.894;6.052;2023-12-28T10:05:56;11.83;70.14
80743;SHT31;70142;50.894;6.052;2023-12-28T10:08:31;11.79;70.04
80743;SHT31;70142;50.894;6.052;2023-12-28T10:11:04;11.90;69.70
80743;SHT31;70142;50.894;6.052;2023-12-28T10:13:37;11.97;69.15
80743;SHT31;70142;50.894;6.052;2023-12-28T10:16:12;12.02;69.04
80743;SHT31;70142;50.894;6.052;2023-12-28T10:18:45;12.25;68.57
80743;SHT31;70142;50.894;6.052;2023-12-28T10:21:19;12.36;68.12
80743;SHT31;70142;50.894;6.052;2023-12-28T10:23:53;12.57;67.61
80743;SHT31;70142;50.894;6.052;2023-12-28T10:26:27;13.05;66.48
80743;SHT31;70142;50.894;6.052;2023-12-28T10:29:01;13.32;65.38
80743;SHT31;70142;50.894;6.052;2023-12-28T10:31:35;13.66;64.75
80743;SHT31;70142;50.894;6.052;2023-12-28T10:34:09;13.18;65.41
80743;SHT31;70142;50.894;6.052;2023-12-28T10:36:45;12.78;66.16
80743;SHT31;70142;50.894;6.052;2023-12-28T10:39:24;12.70;66.43
80743;SHT31;70142;50.894;6.052;2023-12-28T10:42:03;12.61;66.87
80743;SHT31;70142;50.894;6.052;2023-12-28T10:44:43;12.67;66.82
80743;SHT31;70142;50.894;6.052;2023-12-28T10:47:19;12.54;67.12
80743;SHT31;70142;50.894;6.052;2023-12-28T10:49:55;12.46;67.23
80743;SHT31;70142;50.894;6.052;2023-12-28T10:52:33;12.57;66.89
80743;SHT31;70142;50.894;6.052;2023-12-28T10:55:23;12.51;67.15
80743;SHT31;70142;50.894;6.052;2023-12-28T10:58:09;12.74;66.51
80743;SHT31;70142;50.894;6.052;2023-12-28T11:00:50;12.83;66.21
80743;SHT31;70142;50.894;6.052;2023-12-28T11:03:30;12.97;66.43
80743;SHT31;70142;50.894;6.052;2023-12-28T11:06:08;12.94;65.92
80743;SHT31;70142;50.894;6.052;2023-12-28T11:08:42;12.91;65.73
80743;SHT31;70142;50.894;6.052;2023-12-28T11:11:22;12.88;66.16
80743;SHT31;70142;50.894;6.052;2023-12-28T11:13:55;12.92;66.02
80743;SHT31;70142;50.894;6.052;2023-12-28T11:16:30;12.92;66.11
80743;SHT31;70142;50.894;6.052;2023-12-28T11:19:06;13.22;65.22
80743;SHT31;70142;50.894;6.052;2023-12-28T11:21:40;13.55;64.43
80743;SHT31;70142;50.894;6.052;2023-12-28T11:24:15;13.52;64.48
80743;SHT31;70142;50.894;6.052;2023-12-28T11:26:54;13.42;64.98
80743;SHT31;70142;50.894;6.052;2023-12-28T11:29:29;13.45;65.13
80743;SHT31;70142;50.894;6.052;2023-12-28T11:32:03;13.23;65.22
80743;SHT31;70142;50.894;6.052;2023-12-28T11:34:37;12.97;65.93
80743;SHT31;70142;50.894;6.052;2023-12-28T11:37:14;12.87;65.92
80743;SHT31;70142;50.894;6.052;2023-12-28T11:39:51;12.91;65.89
80743;SHT31;70142;50.894;6.052;2023-12-28T11:42:27;12.99;65.82
80743;SHT31;70142;50.894;6.052;2023-12-28T11:45:01;12.73;66.02
80743;SHT31;70142;50.894;6.052;2023-12-28T11:47:34;12.92;65.72
80743;SHT31;70142;50.894;6.052;2023-12-28T11:50:08;12.91;65.93
80743;SHT31;70142;50.894;6.052;2023-12-28T11:52:41;12.88;65.82
80743;SHT31;70142;50.894;6.052;2023-12-28T11:55:21;12.78;65.32
80743;SHT31;70142;50.894;6.052;2023-12-28T11:57:56;12.84;65.60
80743;SHT31;70142;50.894;6.052;2023-12-28T12:00:29;12.91;65.28
80743;SHT31;70142;50.894;6.052;2023-12-28T12:03:02;12.81;66.14
80743;SHT31;70142;50.894;6.052;2023-12-28T12:05:36;12.77;66.23
80743;SHT31;70142;50.894;6.052;2023-12-28T12:08:10;12.99;65.76
80743;SHT31;70142;50.894;6.052;2023-12-28T12:10:46;12.83;65.72
80743;SHT31;70142;50.894;6.052;2023-12-28T12:13:20;12.89;65.26
80743;SHT31;70142;50.894;6.052;2023-12-28T12:15:54;12.92;65.75
80743;SHT31;70142;50.894;6.052;2023-12-28T12:18:29;12.91;65.33
80743;SHT31;70142;50.894;6.052;2023-12-28T12:21:02;13.04;65.56
80743;SHT31;70142;50.894;6.052;2023-12-28T12:23:36;12.88;64.97
80743;SHT31;70142;50.894;6.052;2023-12-28T12:26:09;12.85;65.27
80743;SHT31;70142;50.894;6.052;2023-12-28T12:28:43;12.97;65.06
80743;SHT31;70142;50.894;6.052;2023-12-28T12:31:17;12.76;65.14
80743;SHT31;70142;50.894;6.052;2023-12-28T12:33:51;12.83;65.96
80743;SHT31;70142;50.894;6.052;2023-12-28T12:36:25;12.78;65.44
80743;SHT31;70142;50.894;6.052;2023-12-28T12:38:59;12.85;65.21
80743;SHT31;70142;50.894;6.052;2023-12-28T12:41:32;12.71;65.16
80743;SHT31;70142;50.894;6.052;2023-12-28T12:44:07;12.76;65.31
80743;SHT31;70142;50.894;6.052;2023-12-28T12:46:42;12.77;64.77
80743;SHT31;70142;50.894;6.052;2023-12-28T12:49:16;12.61;65.10
80743;SHT31;70142;50.894;6.052;2023-12-28T12:51:50;12.63;65.21
80743;SHT31;70142;50.894;6.052;2023-12-28T12:54:23;12.64;64.79
80743;SHT31;70142;50.894;6.052;2023-12-28T12:56:56;12.63;64.47
80743;SHT31;70142;50.894;6.052;2023-12-28T12:59:32;12.71;65.26
80743;SHT31;70142;50.894;6.052;2023-12-28T13:02:07;12.65;64.33
80743;SHT31;70142;50.894;6.052;2023-12-28T13:04:41;12.54;64.77
80743;SHT31;70142;50.894;6.052;2023-12-28T13:07:14;12.56;64.88
80743;SHT31;70142;50.894;6.052;2023-12-28T13:09:47;12.63;64.75
80743;SHT31;70142;50.894;6.052;2023-12-28T13:12:21;12.71;64.30
80743;SHT31;70142;50.894;6.052;2023-12-28T13:14:56;12.51;64.38
80743;SHT31;70142;50.894;6.052;2023-12-28T13:17:29;12.51;64.71
80743;SHT31;70142;50.894;6.052;2023-12-28T13:20:03;12.53;65.14
80743;SHT31;70142;50.894;6.052;2023-12-28T13:22:38;12.61;64.42
80743;SHT31;70142;50.894;6.052;2023-12-28T13:25:12;12.67;64.75
80743;SHT31;70142;50.894;6.052;2023-12-28T13:27:45;12.48;64.88
80743;SHT31;70142;50.894;6.052;2023-12-28T13:30:19;12.56;64.98
80743;SHT31;70142;50.894;6.052;2023-12-28T13:32:54;12.46;65.02
80743;SHT31;70142;50.894;6.052;2023-12-28T13:35:28;12.46;65.00
80743;SHT31;70142;50.894;6.052;2023-12-28T13:38:02;12.41;65.28
80743;SHT31;70142;50.894;6.052;2023-12-28T13:40:35;12.38;65.13
80743;SHT31;70142;50.894;6.052;2023-12-28T13:43:08;12.41;65.15
80743;SHT31;70142;50.894;6.052;2023-12-28T13:45:43;12.44;64.71
80743;SHT31;70142;50.894;6.052;2023-12-28T13:48:17;12.56;64.50
80743;SHT31;70142;50.894;6.052;2023-12-28T13:50:50;12.56;64.29
80743;SHT31;70142;50.894;6.052;2023-12-28T13:53:24;12.37;64.84
80743;SHT31;70142;50.894;6.052;2023-12-28T13:55:57;12.36;65.19
80743;SHT31;70142;50.894;6.052;2023-12-28T13:58:30;12.36;64.93
80743;SHT31;70142;50.894;6.052;2023-12-28T14:01:05;12.30;64.94
80743;SHT31;70142;50.894;6.052;2023-12-28T14:03:38;12.33;64.77
80743;SHT31;70142;50.894;6.052;2023-12-28T14:06:12;12.34;64.83
80743;SHT31;70142;50.894;6.052;2023-12-28T14:08:45;12.38;64.53
80743;SHT31;70142;50.894;6.052;2023-12-28T14:11:18;12.38;64.58
80743;SHT31;70142;50.894;6.052;2023-12-28T14:13:51;12.29;64.52
80743;SHT31;70142;50.894;6.052;2023-12-28T14:16:26;12.36;64.74
80743;SHT31;70142;50.894;6.052;2023-12-28T14:18:59;12.33;64.49
80743;SHT31;70142;50.894;6.052;2023-12-28T14:21:35;12.25;64.65
80743;SHT31;70142;50.894;6.052;2023-12-28T14:24:09;12.20;64.84
80743;SHT31;70142;50.894;6.052;2023-12-28T14:26:44;12.17;65.16
80743;SHT31;70142;50.894;6.052;2023-12-28T14:29:18;12.15;65.28
80743;SHT31;70142;50.894;6.052;2023-12-28T14:31:53;12.12;65.04
80743;SHT31;70142;50.894;6.052;2023-12-28T14:34:27;12.12;65.10
80743;SHT31;70142;50.894;6.052;2023-12-28T14:37:03;12.12;65.20
80743;SHT31;70142;50.894;6.052;2023-12-28T14:39:37;12.03;65.13
80743;SHT31;70142;50.894;6.052;2023-12-28T14:42:10;12.02;65.58
80743;SHT31;70142;50.894;6.052;2023-12-28T14:44:45;12.02;65.49
80743;SHT31;70142;50.894;6.052;2023-12-28T14:47:20;12.06;65.69
80743;SHT31;70142;50.894;6.052;2023-12-28T14:49:54;12.10;65.62
80743;SHT31;70142;50.894;6.052;2023-12-28T14:52:27;12.13;65.78
80743;SHT31;70142;50.894;6.052;2023-12-28T14:55:01;12.06;65.98
80743;SHT31;70142;50.894;6.052;2023-12-28T14:57:34;12.03;66.29
80743;SHT31;70142;50.894;6.052;2023-12-28T15:00:08;12.00;66.38
80743;SHT31;70142;50.894;6.052;2023-12-28T15:02:43;11.99;66.67
80743;SHT31;70142;50.894;6.052;2023-12-28T15:05:16;11.87;67.16
80743;SHT31;70142;50.894;6.052;2023-12-28T15:07:52;11.93;67.04
80743;SHT31;70142;50.894;6.052;2023-12-28T15:10:26;11.92;67.47
80743;SHT31;70142;50.894;6.052;2023-12-28T15:13:00;11.86;67.64
80743;SHT31;70142;50.894;6.052;2023-12-28T15:15:34;11.86;67.82
80743;SHT31;70142;50.894;6.052;2023-12-28T15:18:10;11.87;67.69
80743;SHT31;70142;50.894;6.052;2023-12-28T15:20:44;11.85;67.84
80743;SHT31;70142;50.894;6.052;2023-12-28T15:23:18;11.82;68.32
80743;SHT31;70142;50.894;6.052;2023-12-28T15:25:52;11.76;68.22
80743;SHT31;70142;50.894;6.052;2023-12-28T15:28:26;11.78;68.30
80743;SHT31;70142;50.894;6.052;2023-12-28T15:31:01;11.76;68.33
80743;SHT31;70142;50.894;6.052;2023-12-28T15:33:36;11.69;68.58
80743;SHT31;70142;50.894;6.052;2023-12-28T15:36:10;11.72;68.53
80743;SHT31;70142;50.894;6.052;2023-12-28T15:38:43;11.71;68.47
80743;SHT31;70142;50.894;6.052;2023-12-28T15:41:19;11.71;67.97
80743;SHT31;70142;50.894;6.052;2023-12-28T15:43:52;11.78;67.43
80743;SHT31;70142;50.894;6.052;2023-12-28T15:46:25;11.75;67.61
80743;SHT31;70142;50.894;6.052;2023-12-28T15:49:00;11.71;67.82
80743;SHT31;70142;50.894;6.052;2023-12-28T15:51:34;11.76;67.86
80743;SHT31;70142;50.894;6.052;2023-12-28T15:54:07;11.73;68.07
80743;SHT31;70142;50.894;6.052;2023-12-28T15:56:40;11.69;68.41
80743;SHT31;70142;50.894;6.052;2023-12-28T15:59:14;11.65;68.67
80743;SHT31;70142;50.894;6.052;2023-12-28T16:01:47;11.71;68.72
80743;SHT31;70142;50.894;6.052;2023-12-28T16:04:24;11.65;69.09
80743;SHT31;70142;50.894;6.052;2023-12-28T16:06:57;11.57;69.52
80743;SHT31;70142;50.894;6.052;2023-12-28T16:09:30;11.54;69.71
80743;SHT31;70142;50.894;6.052;2023-12-28T16:12:05;11.52;69.53
80743;SHT31;70142;50.894;6.052;2023-12-28T16:14:40;11.46;69.20